createdAt,value
2018-03-06T01:42:29.582Z,39.97
2018-03-06T01:42:30.153Z,40.07
2018-03-06T01:42:30.754Z,40.07
2018-03-06T01:42:31.353Z,39.88
2018-03-06T01:42:31.954Z,39.88
2018-03-06T01:42:32.553Z,39.88
2018-03-06T01:42:33.153Z,39.97
2018-03-06T01:42:33.752Z,39.88
2018-03-06T01:43:27.209Z,39.97
2018-03-06T01:43:27.813Z,39.97
2018-03-06T01:43:28.407Z,39.88
2018-03-06T01:43:29.006Z,39.97
2018-03-06T01:43:29.607Z,39.88
2018-03-06T01:43:30.206Z,39.88
2018-03-06T01:43:30.807Z,39.97
2018-03-06T01:43:31.406Z,39.97
2018-03-06T01:44:24.865Z,39.50
2018-03-06T01:44:25.458Z,39.50
2018-03-06T01:44:26.058Z,39.59
2018-03-06T01:44:26.659Z,39.59
2018-03-06T01:44:27.258Z,39.59
2018-03-06T01:44:27.857Z,39.59
2018-03-06T01:44:28.459Z,39.59
2018-03-06T01:44:29.057Z,39.59
2018-03-06T01:45:23.597Z,39.59
2018-03-06T01:45:24.134Z,39.69
2018-03-06T01:45:24.734Z,39.69
2018-03-06T01:45:25.333Z,39.59
2018-03-06T01:45:25.934Z,39.69
2018-03-06T01:45:26.534Z,39.59
2018-03-06T01:45:27.133Z,39.69
2018-03-06T01:45:27.731Z,39.69
2018-03-06T01:46:22.216Z,39.78
2018-03-06T01:46:22.810Z,39.59
2018-03-06T01:46:23.411Z,39.50
2018-03-06T01:46:24.011Z,39.59
2018-03-06T01:46:24.611Z,39.50
2018-03-06T01:46:25.211Z,39.69
2018-03-06T01:46:25.809Z,39.50
2018-03-06T01:46:26.408Z,39.69
2018-03-06T01:47:19.899Z,39.59
2018-03-06T01:47:20.463Z,39.59
2018-03-06T01:47:21.064Z,39.59
2018-03-06T01:47:21.670Z,39.69
2018-03-06T01:47:22.263Z,39.59
2018-03-06T01:47:22.863Z,39.69
2018-03-06T01:47:23.462Z,39.59
2018-03-06T01:47:24.062Z,39.59
2018-03-06T01:48:17.520Z,39.59
2018-03-06T01:48:18.116Z,39.50
2018-03-06T01:48:18.715Z,39.59
2018-03-06T01:48:19.317Z,39.50
2018-03-06T01:48:19.915Z,39.59
2018-03-06T01:48:20.520Z,39.69
2018-03-06T01:48:21.114Z,39.59
2018-03-06T01:48:21.715Z,39.50
2018-03-06T01:49:15.172Z,39.40
2018-03-06T01:49:15.773Z,39.40
2018-03-06T01:49:16.368Z,39.40
2018-03-06T01:49:16.970Z,39.50
2018-03-06T01:49:17.567Z,39.40
2018-03-06T01:49:18.166Z,39.40
2018-03-06T01:49:18.766Z,39.50
2018-03-06T01:49:19.366Z,39.40
2018-03-06T01:50:12.823Z,38.84
2018-03-06T01:50:13.420Z,39.03
2018-03-06T01:50:14.020Z,38.84
2018-03-06T01:50:14.622Z,38.84
2018-03-06T01:50:15.219Z,38.84
2018-03-06T01:50:15.818Z,38.75
2018-03-06T01:50:16.419Z,38.75
2018-03-06T01:50:17.018Z,38.93
2018-03-06T01:51:11.497Z,39.22
2018-03-06T01:51:12.095Z,39.22
2018-03-06T01:51:12.694Z,39.12
2018-03-06T01:51:13.296Z,39.22
2018-03-06T01:51:13.895Z,39.22
2018-03-06T01:51:14.495Z,39.22
2018-03-06T01:51:15.093Z,39.12
2018-03-06T01:51:15.693Z,39.22
2018-03-06T01:52:10.173Z,39.03
2018-03-06T01:52:10.771Z,38.84
2018-03-06T01:52:11.370Z,38.84
2018-03-06T01:52:11.972Z,39.03
2018-03-06T01:52:12.571Z,38.84
2018-03-06T01:52:13.170Z,39.03
2018-03-06T01:52:13.770Z,39.03
2018-03-06T01:52:14.370Z,39.03
2018-03-06T01:53:07.857Z,38.28
2018-03-06T01:53:08.426Z,38.28
2018-03-06T01:53:09.023Z,38.65
2018-03-06T01:53:09.623Z,38.84
2018-03-06T01:53:10.221Z,38.37
2018-03-06T01:53:10.822Z,38.28
2018-03-06T01:53:11.422Z,38.28
2018-03-06T01:53:12.022Z,38.28
2018-03-06T01:54:05.479Z,38.46
2018-03-06T01:54:06.075Z,38.46
2018-03-06T01:54:06.675Z,38.46
2018-03-06T01:54:07.277Z,38.37
2018-03-06T01:54:07.875Z,38.37
2018-03-06T01:54:08.475Z,38.46
2018-03-06T01:54:09.075Z,38.46
2018-03-06T01:54:09.674Z,38.46
2018-03-06T01:55:03.129Z,38.28
2018-03-06T01:55:03.729Z,38.56
2018-03-06T01:55:04.327Z,38.28
2018-03-06T01:55:04.928Z,38.37
2018-03-06T01:55:05.526Z,38.37
2018-03-06T01:55:06.126Z,38.18
2018-03-06T01:55:06.726Z,38.37
2018-03-06T01:55:07.327Z,38.37
2018-03-06T01:56:00.781Z,38.09
2018-03-06T01:56:01.381Z,38.46
2018-03-06T01:56:01.980Z,37.99
2018-03-06T01:56:02.578Z,38.09
2018-03-06T01:56:03.177Z,38.37
2018-03-06T01:56:03.777Z,38.56
2018-03-06T01:56:04.377Z,38.28
2018-03-06T01:56:04.977Z,38.37
2018-03-06T01:56:58.433Z,38.37
2018-03-06T01:56:59.031Z,38.09
2018-03-06T01:56:59.630Z,38.37
2018-03-06T01:57:00.247Z,38.65
2018-03-06T01:57:00.831Z,38.37
2018-03-06T01:57:01.430Z,38.09
2018-03-06T01:57:02.030Z,38.09
2018-03-06T01:57:02.629Z,38.18
2018-03-06T01:57:57.112Z,37.99
2018-03-06T01:57:57.705Z,38.18
2018-03-06T01:57:58.304Z,37.99
2018-03-06T01:57:58.904Z,38.18
2018-03-06T01:57:59.505Z,38.18
2018-03-06T01:58:00.104Z,38.18
2018-03-06T01:58:00.703Z,38.28
2018-03-06T01:58:01.312Z,38.28
2018-03-06T01:58:54.793Z,38.18
2018-03-06T01:58:55.359Z,37.99
2018-03-06T01:58:55.958Z,38.18
2018-03-06T01:58:56.558Z,38.28
2018-03-06T01:58:57.157Z,38.28
2018-03-06T01:58:57.757Z,38.37
2018-03-06T01:58:58.367Z,38.28
2018-03-06T01:58:58.959Z,38.09
2018-03-06T01:59:53.436Z,37.90
2018-03-06T01:59:54.037Z,37.80
2018-03-06T01:59:54.631Z,37.80
2018-03-06T01:59:55.232Z,37.71
2018-03-06T01:59:55.885Z,37.61
2018-03-06T01:59:56.434Z,37.61
2018-03-06T01:59:57.067Z,37.71
2018-03-06T01:59:57.679Z,37.71
2018-03-06T02:00:52.111Z,37.80
2018-03-06T02:00:52.708Z,37.61
2018-03-06T02:00:53.308Z,37.71
2018-03-06T02:00:53.912Z,37.80
2018-03-06T02:00:54.508Z,37.80
2018-03-06T02:00:55.106Z,37.71
2018-03-06T02:00:55.707Z,37.61
2018-03-06T02:00:56.307Z,37.71
2018-03-06T02:01:49.765Z,37.61
2018-03-06T02:01:50.363Z,37.71
2018-03-06T02:01:50.961Z,37.71
2018-03-06T02:01:51.562Z,37.80
2018-03-06T02:01:52.164Z,37.80
2018-03-06T02:01:52.760Z,37.80
2018-03-06T02:01:53.360Z,37.71
2018-03-06T02:01:53.960Z,37.90
2018-03-06T02:02:48.439Z,37.23
2018-03-06T02:02:49.035Z,37.33
2018-03-06T02:02:49.642Z,37.23
2018-03-06T02:02:50.236Z,37.23
2018-03-06T02:02:50.836Z,37.23
2018-03-06T02:02:51.435Z,37.33
2018-03-06T02:02:52.041Z,37.42
2018-03-06T02:02:52.638Z,37.23
2018-03-06T02:03:46.091Z,37.04
2018-03-06T02:03:46.690Z,37.04
2018-03-06T02:03:47.289Z,37.23
2018-03-06T02:03:47.889Z,37.23
2018-03-06T02:03:48.488Z,37.23
2018-03-06T02:03:49.090Z,37.14
2018-03-06T02:03:49.687Z,37.61
2018-03-06T02:03:50.287Z,37.23
2018-03-06T02:04:43.778Z,36.95
2018-03-06T02:04:44.342Z,36.95
2018-03-06T02:04:44.940Z,37.04
2018-03-06T02:04:45.541Z,36.95
2018-03-06T02:04:46.183Z,37.04
2018-03-06T02:04:46.740Z,37.04
2018-03-06T02:04:47.343Z,36.85
2018-03-06T02:04:47.940Z,37.04
2018-03-06T02:05:41.396Z,36.95
2018-03-06T02:05:41.995Z,37.04
2018-03-06T02:05:42.591Z,37.04
2018-03-06T02:05:43.192Z,36.95
2018-03-06T02:05:43.792Z,37.04
2018-03-06T02:05:44.392Z,36.95
2018-03-06T02:05:44.991Z,36.85
2018-03-06T02:05:45.592Z,36.95
2018-03-06T02:06:40.070Z,36.66
2018-03-06T02:06:40.666Z,36.76
2018-03-06T02:06:41.266Z,36.95
2018-03-06T02:06:41.866Z,36.95
2018-03-06T02:06:42.466Z,36.95
2018-03-06T02:06:43.065Z,36.95
2018-03-06T02:06:43.666Z,36.85
2018-03-06T02:06:44.267Z,36.76
2018-03-06T02:07:37.722Z,36.66
2018-03-06T02:07:38.319Z,36.76
2018-03-06T02:07:38.921Z,36.76
2018-03-06T02:07:39.519Z,36.66
2018-03-06T02:07:40.120Z,36.57
2018-03-06T02:07:40.723Z,36.66
2018-03-06T02:07:41.318Z,36.66
2018-03-06T02:07:41.916Z,36.76
2018-03-06T02:08:35.375Z,36.31
2018-03-06T02:08:35.973Z,36.57
2018-03-06T02:08:36.572Z,36.29
2018-03-06T02:08:37.172Z,36.31
2018-03-06T02:08:37.771Z,36.21
2018-03-06T02:08:38.370Z,36.47
2018-03-06T02:08:38.970Z,36.31
2018-03-06T02:08:39.571Z,36.38
2018-03-06T02:09:34.050Z,36.85
2018-03-06T02:09:34.646Z,36.57
2018-03-06T02:09:35.246Z,36.19
2018-03-06T02:09:35.846Z,36.85
2018-03-06T02:09:36.446Z,36.87
2018-03-06T02:09:37.044Z,36.59
2018-03-06T02:09:37.646Z,36.59
2018-03-06T02:09:38.245Z,36.78
2018-03-06T02:10:32.758Z,35.93
2018-03-06T02:10:33.322Z,35.93
2018-03-06T02:10:33.922Z,36.02
2018-03-06T02:10:34.522Z,36.12
2018-03-06T02:10:35.123Z,36.49
2018-03-06T02:10:35.722Z,35.93
2018-03-06T02:10:36.320Z,36.12
2018-03-06T02:10:36.920Z,36.12
2018-03-06T02:11:30.376Z,36.12
2018-03-06T02:11:30.974Z,36.02
2018-03-06T02:11:31.574Z,36.02
2018-03-06T02:11:32.181Z,35.93
2018-03-06T02:11:32.775Z,36.12
2018-03-06T02:11:33.374Z,35.93
2018-03-06T02:11:33.972Z,36.02
2018-03-06T02:11:34.573Z,36.02
2018-03-06T02:12:29.052Z,35.93
2018-03-06T02:12:29.649Z,35.93
2018-03-06T02:12:30.251Z,35.93
2018-03-06T02:12:30.849Z,35.83
2018-03-06T02:12:31.449Z,36.02
2018-03-06T02:12:32.049Z,35.93
2018-03-06T02:12:32.650Z,36.12
2018-03-06T02:12:33.249Z,36.02
2018-03-06T02:13:27.727Z,35.64
2018-03-06T02:13:28.326Z,35.64
2018-03-06T02:13:28.924Z,35.74
2018-03-06T02:13:29.525Z,35.55
2018-03-06T02:13:30.122Z,35.64
2018-03-06T02:13:30.723Z,35.64
2018-03-06T02:13:31.324Z,35.55
2018-03-06T02:13:31.923Z,35.74
2018-03-06T02:14:26.402Z,35.74
2018-03-06T02:14:26.999Z,35.74
2018-03-06T02:14:27.608Z,35.83
2018-03-06T02:14:28.202Z,35.74
2018-03-06T02:14:28.800Z,35.83
2018-03-06T02:14:29.399Z,35.74
2018-03-06T02:14:29.999Z,35.74
2018-03-06T02:14:30.599Z,35.83
2018-03-06T02:15:25.079Z,35.46
2018-03-06T02:15:25.676Z,35.83
2018-03-06T02:15:26.274Z,35.64
2018-03-06T02:15:26.882Z,35.55
2018-03-06T02:15:27.476Z,35.46
2018-03-06T02:15:28.076Z,35.55
2018-03-06T02:15:28.675Z,35.55
2018-03-06T02:15:29.275Z,35.55
2018-03-06T02:16:22.764Z,35.55
2018-03-06T02:16:23.328Z,35.55
2018-03-06T02:16:23.928Z,35.36
2018-03-06T02:16:24.528Z,35.55
2018-03-06T02:16:25.132Z,35.64
2018-03-06T02:16:25.728Z,35.55
2018-03-06T02:16:26.327Z,35.55
2018-03-06T02:16:26.928Z,35.55
2018-03-06T02:17:21.407Z,35.55
2018-03-06T02:17:22.002Z,35.55
2018-03-06T02:17:22.603Z,35.64
2018-03-06T02:17:23.204Z,35.55
2018-03-06T02:17:23.807Z,35.64
2018-03-06T02:17:24.402Z,35.74
2018-03-06T02:17:25.002Z,35.64
2018-03-06T02:17:25.602Z,35.74
2018-03-06T02:18:20.082Z,35.46
2018-03-06T02:18:20.679Z,35.55
2018-03-06T02:18:21.280Z,35.55
2018-03-06T02:18:21.884Z,35.55
2018-03-06T02:18:22.478Z,35.46
2018-03-06T02:18:23.078Z,35.36
2018-03-06T02:18:23.677Z,35.46
2018-03-06T02:18:24.278Z,35.36
2018-03-06T02:19:17.736Z,35.36
2018-03-06T02:19:18.332Z,35.46
2018-03-06T02:19:18.931Z,35.36
2018-03-06T02:19:19.531Z,35.27
2018-03-06T02:19:20.131Z,35.36
2018-03-06T02:19:20.731Z,35.36
2018-03-06T02:19:21.331Z,35.46
2018-03-06T02:19:21.930Z,35.36
2018-03-06T02:20:15.388Z,34.99
2018-03-06T02:20:15.985Z,34.99
2018-03-06T02:20:16.586Z,34.99
2018-03-06T02:20:17.182Z,35.08
2018-03-06T02:20:17.784Z,34.89
2018-03-06T02:20:18.383Z,34.99
2018-03-06T02:20:18.989Z,34.80
2018-03-06T02:20:19.581Z,34.80
2018-03-06T02:21:14.066Z,34.70
2018-03-06T02:21:14.658Z,34.70
2018-03-06T02:21:15.257Z,34.89
2018-03-06T02:21:15.858Z,34.70
2018-03-06T02:21:16.459Z,34.70
2018-03-06T02:21:17.056Z,34.89
2018-03-06T02:21:17.657Z,34.70
2018-03-06T02:21:18.257Z,34.70
2018-03-06T02:22:11.748Z,34.51
2018-03-06T02:22:12.311Z,34.61
2018-03-06T02:22:12.911Z,34.70
2018-03-06T02:22:13.510Z,34.70
2018-03-06T02:22:14.111Z,34.61
2018-03-06T02:22:14.710Z,34.51
2018-03-06T02:22:15.310Z,34.42
2018-03-06T02:22:15.909Z,34.61
2018-03-06T02:23:10.389Z,34.51
2018-03-06T02:23:10.987Z,34.61
2018-03-06T02:23:11.585Z,34.80
2018-03-06T02:23:12.186Z,34.61
2018-03-06T02:23:12.788Z,34.70
2018-03-06T02:23:13.385Z,34.42
2018-03-06T02:23:13.984Z,34.42
2018-03-06T02:23:14.584Z,34.70
2018-03-06T02:24:09.063Z,34.32
2018-03-06T02:24:09.663Z,34.23
2018-03-06T02:24:10.262Z,34.32
2018-03-06T02:24:10.862Z,34.42
2018-03-06T02:24:11.461Z,34.32
2018-03-06T02:24:12.061Z,34.32
2018-03-06T02:24:12.663Z,34.42
2018-03-06T02:24:13.260Z,34.32
2018-03-06T02:25:06.717Z,33.94
2018-03-06T02:25:07.315Z,34.23
2018-03-06T02:25:07.915Z,33.94
2018-03-06T02:25:08.515Z,34.23
2018-03-06T02:25:09.113Z,34.23
2018-03-06T02:25:09.714Z,34.23
2018-03-06T02:25:10.313Z,33.94
2018-03-06T02:25:10.913Z,34.04
2018-03-06T02:26:04.369Z,33.94
2018-03-06T02:26:04.966Z,33.66
2018-03-06T02:26:05.566Z,33.94
2018-03-06T02:26:06.165Z,34.04
2018-03-06T02:26:06.765Z,33.85
2018-03-06T02:26:07.365Z,33.85
2018-03-06T02:26:07.965Z,33.94
2018-03-06T02:26:08.565Z,33.75
2018-03-06T02:27:03.043Z,33.94
2018-03-06T02:27:03.640Z,34.13
2018-03-06T02:27:04.240Z,34.04
2018-03-06T02:27:04.841Z,34.13
2018-03-06T02:27:05.440Z,34.13
2018-03-06T02:27:06.040Z,33.94
2018-03-06T02:27:06.639Z,34.04
2018-03-06T02:27:07.238Z,34.04
2018-03-06T02:28:00.728Z,33.85
2018-03-06T02:28:01.294Z,33.75
2018-03-06T02:28:01.893Z,33.85
2018-03-06T02:28:02.492Z,33.75
2018-03-06T02:28:03.092Z,33.85
2018-03-06T02:28:03.692Z,33.85
2018-03-06T02:28:04.292Z,33.85
2018-03-06T02:28:04.919Z,33.94
2018-03-06T02:28:58.347Z,34.04
2018-03-06T02:28:58.945Z,34.04
2018-03-06T02:28:59.544Z,34.04
2018-03-06T02:29:00.144Z,34.04
2018-03-06T02:29:00.744Z,33.94
2018-03-06T02:29:01.344Z,33.94
2018-03-06T02:29:01.945Z,34.04
2018-03-06T02:29:02.544Z,33.85
2018-03-06T02:29:56.038Z,33.66
2018-03-06T02:29:56.597Z,33.47
2018-03-06T02:29:57.196Z,33.56
2018-03-06T02:29:57.796Z,33.85
2018-03-06T02:29:58.396Z,33.85
2018-03-06T02:29:58.996Z,33.56
2018-03-06T02:29:59.595Z,33.56
2018-03-06T02:30:00.198Z,33.56
2018-03-06T02:30:53.650Z,33.47
2018-03-06T02:30:54.254Z,33.56
2018-03-06T02:30:54.848Z,33.75
2018-03-06T02:30:55.448Z,33.56
2018-03-06T02:30:56.047Z,33.66
2018-03-06T02:30:56.646Z,33.56
2018-03-06T02:30:57.248Z,33.56
2018-03-06T02:30:57.851Z,33.66
2018-03-06T02:31:51.305Z,33.56
2018-03-06T02:31:51.903Z,33.75
2018-03-06T02:31:52.500Z,33.66
2018-03-06T02:31:53.099Z,33.56
2018-03-06T02:31:53.698Z,33.66
2018-03-06T02:31:54.297Z,33.56
2018-03-06T02:31:54.898Z,33.66
2018-03-06T02:31:55.497Z,33.66
2018-03-06T02:32:49.977Z,33.94
2018-03-06T02:32:50.574Z,33.94
2018-03-06T02:32:51.174Z,34.04
2018-03-06T02:32:51.774Z,34.04
2018-03-06T02:32:52.373Z,34.04
2018-03-06T02:32:52.977Z,34.04
2018-03-06T02:32:53.574Z,33.94
2018-03-06T02:32:54.172Z,34.04
2018-03-06T02:33:47.656Z,33.47
2018-03-06T02:33:48.240Z,33.56
2018-03-06T02:33:48.827Z,33.47
2018-03-06T02:33:49.427Z,34.23
2018-03-06T02:33:50.026Z,33.94
2018-03-06T02:33:50.626Z,33.94
2018-03-06T02:33:51.228Z,33.94
2018-03-06T02:33:51.826Z,33.47
2018-03-06T02:34:46.305Z,34.23
2018-03-06T02:34:46.904Z,33.47
2018-03-06T02:34:47.501Z,33.56
2018-03-06T02:34:48.102Z,34.13
2018-03-06T02:34:48.701Z,33.75
2018-03-06T02:34:49.301Z,33.94
2018-03-06T02:34:49.900Z,33.85
2018-03-06T02:34:50.500Z,33.85
2018-03-06T02:35:43.957Z,33.66
2018-03-06T02:35:44.555Z,33.56
2018-03-06T02:35:45.153Z,33.56
2018-03-06T02:35:45.754Z,33.66
2018-03-06T02:35:46.353Z,33.47
2018-03-06T02:35:46.956Z,33.47
2018-03-06T02:35:47.554Z,33.56
2018-03-06T02:35:48.153Z,33.56
2018-03-06T02:36:41.632Z,33.56
2018-03-06T02:36:42.204Z,33.56
2018-03-06T02:36:42.804Z,33.56
2018-03-06T02:36:43.407Z,33.56
2018-03-06T02:36:44.003Z,33.47
2018-03-06T02:36:44.603Z,33.66
2018-03-06T02:36:45.203Z,33.56
2018-03-06T02:36:45.803Z,33.56
2018-03-06T02:37:40.282Z,33.56
2018-03-06T02:37:40.880Z,33.56
2018-03-06T02:37:41.478Z,33.66
2018-03-06T02:37:42.079Z,33.75
2018-03-06T02:37:42.677Z,33.75
2018-03-06T02:37:43.278Z,33.75
2018-03-06T02:37:43.893Z,33.75
2018-03-06T02:37:44.477Z,34.13
2018-03-06T02:38:38.993Z,33.56
2018-03-06T02:38:39.554Z,33.66
2018-03-06T02:38:40.153Z,33.56
2018-03-06T02:38:40.756Z,33.56
2018-03-06T02:38:41.354Z,33.85
2018-03-06T02:38:41.953Z,33.66
2018-03-06T02:38:42.553Z,33.66
2018-03-06T02:38:43.154Z,33.85
2018-03-06T02:39:36.612Z,33.75
2018-03-06T02:39:37.207Z,33.85
2018-03-06T02:39:37.806Z,34.13
2018-03-06T02:57:20.375Z,40.37
2018-03-06T02:57:20.942Z,40.56
2018-03-06T02:57:21.540Z,40.75
2018-03-06T02:57:22.139Z,40.47
2018-03-06T02:57:22.738Z,40.47
2018-03-06T02:57:23.339Z,40.37
2018-03-06T02:57:23.938Z,40.47
2018-03-06T02:57:24.538Z,40.37
2018-03-06T02:58:17.999Z,40.09
2018-03-06T02:58:18.593Z,40.56
2018-03-06T02:58:19.193Z,40.56
2018-03-06T02:58:19.799Z,40.56
2018-03-06T02:58:20.393Z,40.56
2018-03-06T02:58:20.993Z,40.37
2018-03-06T02:58:21.592Z,40.09
2018-03-06T02:58:22.192Z,40.37
2018-03-06T02:59:15.648Z,40.47
2018-03-06T02:59:16.245Z,40.75
2018-03-06T02:59:16.846Z,40.84
2018-03-06T02:59:17.449Z,40.84
2018-03-06T02:59:18.046Z,40.84
2018-03-06T02:59:18.646Z,40.56
2018-03-06T02:59:19.245Z,40.56
2018-03-06T02:59:19.845Z,40.56
2018-03-06T03:00:14.324Z,41.22
2018-03-06T03:00:14.921Z,40.66
2018-03-06T03:00:15.521Z,40.66
2018-03-06T03:00:16.123Z,40.56
2018-03-06T03:00:16.723Z,40.56
2018-03-06T03:00:17.321Z,40.84
2018-03-06T03:00:17.920Z,40.75
2018-03-06T03:00:18.519Z,41.13
2018-03-06T03:01:11.976Z,40.75
2018-03-06T03:01:12.573Z,40.94
2018-03-06T03:01:13.212Z,40.66
2018-03-06T03:01:13.777Z,40.75
2018-03-06T03:01:14.373Z,40.75
2018-03-06T03:01:14.972Z,40.45
2018-03-06T03:01:15.577Z,40.75
2018-03-06T03:01:16.172Z,40.75
2018-03-06T03:02:09.633Z,40.94
2018-03-06T03:02:10.225Z,40.83
2018-03-06T03:02:10.826Z,40.83
2018-03-06T03:02:11.427Z,40.92
2018-03-06T03:02:12.025Z,40.84
2018-03-06T03:02:12.624Z,40.84
2018-03-06T03:02:13.226Z,40.94
2018-03-06T03:02:13.824Z,40.92
2018-03-06T03:03:08.336Z,41.03
2018-03-06T03:03:08.905Z,41.13
2018-03-06T03:03:09.500Z,41.03
2018-03-06T03:03:10.102Z,41.02
2018-03-06T03:03:10.701Z,41.03
2018-03-06T03:03:11.299Z,41.11
2018-03-06T03:03:11.900Z,41.02
2018-03-06T03:03:12.499Z,41.02
2018-03-06T03:04:06.980Z,40.64
2018-03-06T03:04:07.576Z,40.54
2018-03-06T03:04:08.177Z,40.56
2018-03-06T03:04:08.777Z,40.56
2018-03-06T03:04:09.375Z,40.54
2018-03-06T03:04:09.976Z,40.56
2018-03-06T03:04:10.576Z,40.56
2018-03-06T03:04:11.176Z,40.64
2018-03-06T03:05:04.632Z,39.97
2018-03-06T03:05:05.230Z,40.26
2018-03-06T03:05:05.829Z,40.00
2018-03-06T03:05:06.434Z,40.07
2018-03-06T03:05:07.028Z,40.16
2018-03-06T03:05:07.629Z,40.16
2018-03-06T03:05:08.229Z,40.07
2018-03-06T03:05:08.829Z,40.07
2018-03-06T03:06:02.284Z,39.14
2018-03-06T03:06:02.881Z,39.03
2018-03-06T03:06:03.482Z,39.05
2018-03-06T03:06:04.094Z,38.76
2018-03-06T03:06:04.682Z,38.95
2018-03-06T03:06:05.278Z,38.86
2018-03-06T03:06:05.880Z,38.95
2018-03-06T03:06:06.479Z,38.86
2018-03-06T03:06:59.936Z,38.01
2018-03-06T03:07:00.533Z,37.82
2018-03-06T03:07:01.133Z,37.92
2018-03-06T03:07:01.733Z,37.82
2018-03-06T03:07:02.332Z,37.82
2018-03-06T03:07:02.932Z,37.63
2018-03-06T03:07:03.532Z,37.63
2018-03-06T03:07:04.133Z,37.63
2018-03-06T03:07:57.591Z,36.97
2018-03-06T03:07:58.185Z,37.06
2018-03-06T03:07:58.785Z,36.87
2018-03-06T03:07:59.385Z,36.97
2018-03-06T03:07:59.985Z,37.06
2018-03-06T03:08:00.583Z,36.87
2018-03-06T03:08:01.184Z,37.06
2018-03-06T03:08:01.783Z,37.06
2018-03-06T03:08:56.296Z,36.68
2018-03-06T03:08:56.859Z,36.87
2018-03-06T03:08:57.459Z,36.87
2018-03-06T03:08:58.061Z,36.87
2018-03-06T03:08:58.659Z,36.68
2018-03-06T03:08:59.259Z,36.78
2018-03-06T03:08:59.858Z,36.87
2018-03-06T03:09:00.457Z,36.87
2018-03-06T03:09:53.929Z,36.97
2018-03-06T03:09:54.513Z,36.78
2018-03-06T03:09:55.114Z,36.87
2018-03-06T03:09:55.714Z,36.87
2018-03-06T03:09:56.311Z,36.78
2018-03-06T03:09:56.911Z,36.87
2018-03-06T03:09:57.512Z,36.97
2018-03-06T03:09:58.112Z,36.87
2018-03-06T03:10:51.569Z,37.06
2018-03-06T03:10:52.165Z,37.06
2018-03-06T03:10:52.764Z,36.87
2018-03-06T03:10:53.365Z,37.06
2018-03-06T03:10:53.964Z,36.87
2018-03-06T03:10:54.562Z,36.97
2018-03-06T03:10:55.164Z,37.25
2018-03-06T03:10:55.762Z,37.06
2018-03-06T03:11:50.242Z,37.06
2018-03-06T03:11:50.840Z,37.25
2018-03-06T03:11:51.438Z,37.16
2018-03-06T03:11:52.043Z,37.35
2018-03-06T03:11:52.639Z,37.16
2018-03-06T03:11:53.238Z,37.16
2018-03-06T03:11:53.838Z,37.16
2018-03-06T03:11:54.438Z,37.63
2018-03-06T03:12:48.917Z,38.01
2018-03-06T03:12:49.514Z,37.73
2018-03-06T03:12:50.116Z,37.54
2018-03-06T03:12:50.715Z,37.54
2018-03-06T03:12:51.314Z,37.82
2018-03-06T03:12:51.915Z,37.73
2018-03-06T03:12:52.514Z,37.73
2018-03-06T03:12:53.113Z,37.44
2018-03-06T03:13:47.594Z,38.01
2018-03-06T03:13:48.190Z,38.20
2018-03-06T03:13:48.790Z,38.20
2018-03-06T03:13:49.395Z,38.29
2018-03-06T03:13:49.990Z,38.20
2018-03-06T03:13:50.590Z,38.10
2018-03-06T03:13:51.192Z,38.29
2018-03-06T03:13:51.789Z,38.10
2018-03-06T03:14:45.287Z,38.48
2018-03-06T03:14:45.842Z,38.01
2018-03-06T03:14:46.444Z,38.01
2018-03-06T03:14:47.044Z,38.48
2018-03-06T03:14:47.642Z,38.48
2018-03-06T03:14:48.242Z,38.48
2018-03-06T03:14:48.846Z,38.48
2018-03-06T03:14:49.445Z,38.01
2018-03-06T03:15:42.897Z,38.57
2018-03-06T03:15:43.496Z,38.10
2018-03-06T03:15:44.096Z,38.01
2018-03-06T03:15:44.695Z,38.10
2018-03-06T03:15:45.296Z,38.10
2018-03-06T03:15:45.894Z,38.29
2018-03-06T03:15:46.497Z,38.29
2018-03-06T03:15:47.094Z,38.29
2018-03-06T03:16:40.549Z,38.67
2018-03-06T03:16:41.148Z,38.57
2018-03-06T03:16:41.747Z,39.05
2018-03-06T03:16:42.347Z,38.76
2018-03-06T03:16:42.945Z,38.76
2018-03-06T03:16:43.546Z,39.05
2018-03-06T03:16:44.145Z,38.76
2018-03-06T03:16:44.745Z,38.76
2018-03-06T03:17:38.203Z,39.14
2018-03-06T03:17:38.800Z,39.05
2018-03-06T03:17:39.398Z,39.05
2018-03-06T03:17:39.998Z,39.14
2018-03-06T03:17:40.598Z,39.05
2018-03-06T03:17:41.198Z,39.14
2018-03-06T03:17:41.798Z,39.14
2018-03-06T03:17:42.397Z,39.05
2018-03-06T03:18:35.854Z,39.05
2018-03-06T03:18:36.451Z,38.95
2018-03-06T03:18:37.049Z,38.95
2018-03-06T03:18:37.654Z,38.95
2018-03-06T03:18:38.249Z,38.95
2018-03-06T03:18:38.850Z,38.95
2018-03-06T03:18:39.450Z,38.86
2018-03-06T03:18:40.049Z,38.95
2018-03-06T03:19:33.507Z,39.05
2018-03-06T03:19:34.106Z,39.14
2018-03-06T03:19:34.704Z,38.86
2018-03-06T03:19:35.302Z,39.24
2018-03-06T03:19:35.901Z,39.05
2018-03-06T03:19:36.500Z,39.14
2018-03-06T03:19:37.101Z,39.24
2018-03-06T03:19:37.700Z,39.24
2018-03-06T03:20:32.239Z,39.62
2018-03-06T03:20:32.776Z,39.52
2018-03-06T03:20:33.375Z,39.62
2018-03-06T03:20:33.977Z,39.62
2018-03-06T03:20:34.576Z,39.71
2018-03-06T03:20:35.176Z,39.52
2018-03-06T03:20:35.776Z,39.62
2018-03-06T03:20:36.374Z,39.52
2018-03-06T03:21:30.855Z,39.81
2018-03-06T03:21:31.452Z,39.71
2018-03-06T03:21:32.052Z,39.71
2018-03-06T03:21:32.651Z,39.81
2018-03-06T03:21:33.252Z,39.62
2018-03-06T03:21:33.850Z,39.81
2018-03-06T03:21:34.455Z,39.90
2018-03-06T03:21:35.050Z,39.62
2018-03-06T03:22:28.509Z,40.56
2018-03-06T03:22:29.110Z,40.28
2018-03-06T03:22:29.704Z,39.71
2018-03-06T03:22:30.304Z,39.71
2018-03-06T03:22:30.904Z,40.66
2018-03-06T03:22:31.504Z,40.56
2018-03-06T03:22:32.104Z,40.56
2018-03-06T03:22:32.704Z,39.71
2018-03-06T03:23:26.162Z,40.19
2018-03-06T03:23:26.758Z,40.19
2018-03-06T03:23:27.357Z,40.09
2018-03-06T03:23:27.957Z,40.19
2018-03-06T03:23:28.557Z,40.19
2018-03-06T03:23:29.157Z,40.09
2018-03-06T03:23:29.757Z,40.09
2018-03-06T03:23:30.356Z,40.19
2018-03-06T03:24:24.835Z,40.09
2018-03-06T03:24:25.449Z,40.09
2018-03-06T03:24:26.031Z,40.19
2018-03-06T03:24:26.632Z,40.19
2018-03-06T03:24:27.230Z,40.09
2018-03-06T03:24:27.830Z,40.28
2018-03-06T03:24:28.431Z,40.09
2018-03-06T03:24:29.030Z,40.09
2018-03-06T03:25:22.488Z,40.47
2018-03-06T03:25:23.085Z,40.37
2018-03-06T03:25:23.685Z,40.47
2018-03-06T03:25:24.284Z,40.56
2018-03-06T03:25:24.884Z,40.66
2018-03-06T03:25:25.484Z,40.84
2018-03-06T03:25:26.090Z,40.66
2018-03-06T03:25:26.684Z,40.56
2018-03-06T03:26:21.187Z,41.03
2018-03-06T03:26:21.758Z,41.03
2018-03-06T03:26:22.359Z,41.22
2018-03-06T03:26:22.958Z,40.94
2018-03-06T03:26:23.558Z,40.94
2018-03-06T03:26:24.158Z,41.22
2018-03-06T03:26:24.757Z,40.94
2018-03-06T03:26:25.357Z,41.32
2018-03-06T03:27:19.836Z,41.89
2018-03-06T03:27:20.434Z,41.70
2018-03-06T03:27:21.035Z,41.70
2018-03-06T03:27:21.634Z,41.70
2018-03-06T03:27:22.246Z,41.60
2018-03-06T03:27:22.833Z,41.89
2018-03-06T03:27:23.433Z,41.51
2018-03-06T03:27:24.033Z,41.70
2018-03-06T03:28:18.512Z,42.27
2018-03-06T03:28:19.110Z,42.17
2018-03-06T03:28:19.710Z,42.08
2018-03-06T03:28:20.310Z,42.27
2018-03-06T03:28:20.915Z,42.17
2018-03-06T03:28:21.509Z,42.17
2018-03-06T03:28:22.108Z,41.98
2018-03-06T03:28:22.710Z,42.08
2018-03-06T03:29:16.165Z,42.17
2018-03-06T03:29:16.763Z,42.27
2018-03-06T03:29:17.366Z,42.08
2018-03-06T03:29:17.968Z,42.17
2018-03-06T03:29:18.560Z,42.27
2018-03-06T03:29:19.161Z,42.27
2018-03-06T03:29:19.760Z,42.27
2018-03-06T03:29:20.360Z,42.08
2018-03-06T03:30:13.820Z,42.36
2018-03-06T03:30:14.415Z,42.36
2018-03-06T03:30:15.016Z,42.45
2018-03-06T03:30:15.614Z,42.36
2018-03-06T03:30:16.216Z,42.36
2018-03-06T03:30:16.815Z,42.45
2018-03-06T03:30:17.414Z,42.45
2018-03-06T03:30:18.013Z,42.36
2018-03-06T03:31:11.503Z,42.93
2018-03-06T03:31:12.067Z,42.83
2018-03-06T03:31:12.666Z,42.93
2018-03-06T03:31:13.266Z,42.83
2018-03-06T03:31:13.869Z,42.83
2018-03-06T03:31:14.467Z,43.02
2018-03-06T03:31:15.066Z,42.74
2018-03-06T03:31:15.664Z,42.93
2018-03-06T03:32:09.119Z,43.21
2018-03-06T03:32:09.718Z,43.21
2018-03-06T03:32:10.317Z,43.02
2018-03-06T03:32:10.924Z,43.02
2018-03-06T03:32:11.518Z,43.12
2018-03-06T03:32:12.117Z,43.21
2018-03-06T03:32:12.716Z,43.12
2018-03-06T03:32:13.323Z,43.12
2018-03-06T03:33:07.795Z,43.49
2018-03-06T03:33:08.391Z,43.49